Local Weather
17097
page-template-default,page,page-id-17097,bridge-core-1.0.4,ajax_fade,page_not_loaded,,hide_top_bar_on_mobile_header,qode-child-theme-ver-1.0.0,qode-theme-ver-18.0.9,qode-theme-bridge,qode_header_in_grid,wpb-js-composer js-comp-ver-4.11.2.1,vc_responsive
 

LOCAL WEATHER

METAR & TAF for EGTK Oxford

Available data for EGTK from the past hour
OXFORD
Metar
EGTK 180820Z 17003KT CAVOK 15/12 Q1015

08:20 UTC

Wind: 170° 3kt

Visibility:

Sky:

Temp: 15 deg C / 59 deg F

Dewpoint: 12 deg C / 53.6 deg F

Pressure: 1015 hPa

TAF
TAF EGTK 180728Z 1807/1815 VRB03KT 9999 SCT035 PROB40 TEMPO 1810/1815 6000 RA BKN014